createdAt,value
2023-10-11T00:00:33.145Z,48.25
2023-10-11T00:03:01.070Z,47.89
2023-10-11T00:05:37.228Z,47.81
2023-10-11T00:08:04.490Z,47.91
2023-10-11T00:10:30.958Z,48.26
2023-10-11T00:13:00.292Z,48.13
2023-10-11T00:15:27.929Z,48.00
2023-10-11T00:17:54.365Z,48.18
2023-10-11T00:20:29.292Z,48.05
2023-10-11T00:22:56.720Z,48.22
2023-10-11T00:25:26.100Z,48.15
2023-10-11T00:27:52.682Z,48.08
2023-10-11T00:30:19.579Z,48.37
2023-10-11T00:32:49.050Z,48.41
2023-10-11T00:35:25.643Z,48.31
2023-10-11T00:37:55.690Z,48.54
2023-10-11T00:40:33.462Z,48.49
2023-10-11T00:42:59.852Z,48.77
2023-10-11T00:45:31.529Z,48.47
2023-10-11T00:47:58.220Z,48.57
2023-10-11T00:50:24.598Z,48.60
2023-10-11T00:52:51.605Z,48.50
2023-10-11T00:55:24.371Z,48.94
2023-10-11T00:57:51.034Z,48.85
2023-10-11T01:00:18.869Z,48.57
2023-10-11T01:02:48.411Z,48.88
2023-10-11T01:05:15.767Z,48.88
2023-10-11T01:07:42.120Z,48.80
2023-10-11T01:10:08.932Z,48.80
2023-10-11T01:12:35.453Z,48.81
2023-10-11T01:15:02.254Z,48.90
2023-10-11T01:17:32.741Z,49.11
2023-10-11T01:20:00.798Z,48.91
2023-10-11T01:22:30.146Z,48.98
2023-10-11T01:24:59.461Z,49.04
2023-10-11T01:27:31.317Z,49.30
2023-10-11T01:29:58.645Z,49.08
2023-10-11T01:32:25.083Z,49.10
2023-10-11T01:34:53.047Z,49.12
2023-10-11T01:37:19.410Z,49.13
2023-10-11T01:39:45.760Z,49.28
2023-10-11T01:42:12.134Z,49.34
2023-10-11T01:44:39.941Z,49.28
2023-10-11T01:47:06.670Z,49.46
2023-10-11T01:49:40.413Z,49.48
2023-10-11T01:52:07.925Z,49.26
2023-10-11T01:54:35.476Z,49.25
2023-10-11T01:57:02.925Z,49.39
2023-10-11T01:59:29.335Z,49.19
2023-10-11T02:02:04.442Z,49.22
2023-10-11T02:04:31.410Z,49.21
2023-10-11T02:06:58.401Z,49.28
2023-10-11T02:09:24.969Z,49.45
2023-10-11T02:11:55.437Z,49.46
2023-10-11T02:14:25.554Z,49.60
2023-10-11T02:16:54.394Z,49.45
2023-10-11T02:19:24.015Z,49.48
2023-10-11T02:21:50.412Z,49.35
2023-10-11T02:24:16.857Z,49.46
2023-10-11T02:31:51.649Z,49.64
2023-10-11T02:34:18.164Z,49.55
2023-10-11T02:36:44.935Z,49.29
2023-10-11T02:39:21.875Z,49.81
2023-10-11T02:41:50.846Z,49.38
2023-10-11T02:44:17.401Z,49.67
2023-10-11T02:46:44.334Z,49.84
2023-10-11T02:49:31.319Z,49.67
2023-10-11T02:51:58.542Z,49.66
2023-10-11T02:54:35.488Z,49.79
2023-10-11T02:57:02.318Z,49.79
2023-10-11T02:59:28.897Z,50.02
2023-10-11T03:02:01.316Z,50.04
2023-10-11T03:04:33.928Z,49.96
2023-10-11T03:07:01.657Z,50.03
2023-10-11T03:09:30.657Z,49.86
2023-10-11T03:11:57.933Z,49.88
2023-10-11T03:14:24.831Z,50.19
2023-10-11T03:16:58.217Z,50.24
2023-10-11T03:19:27.591Z,50.27
2023-10-11T03:21:55.245Z,50.37
2023-10-11T03:24:22.578Z,50.35
2023-10-11T03:26:49.925Z,50.35
2023-10-11T03:29:20.274Z,50.48
2023-10-11T03:31:46.977Z,50.33
2023-10-11T03:34:13.441Z,50.26
2023-10-11T03:36:52.396Z,50.76
2023-10-11T03:39:29.474Z,50.78
2023-10-11T03:42:08.718Z,50.78
2023-10-11T03:44:41.379Z,50.87
2023-10-11T03:47:15.596Z,50.83
2023-10-11T03:49:42.340Z,50.70
2023-10-11T03:52:24.153Z,50.65
2023-10-11T03:55:23.017Z,50.69
2023-10-11T03:57:52.061Z,50.93
2023-10-11T04:00:24.762Z,51.07
2023-10-11T04:03:06.571Z,51.09
2023-10-11T04:05:37.133Z,50.96
2023-10-11T04:08:08.969Z,50.88
2023-10-11T04:10:44.606Z,51.40
2023-10-11T04:13:16.022Z,51.42
2023-10-11T04:15:42.986Z,51.52
2023-10-11T04:18:21.762Z,51.70
2023-10-11T04:21:05.360Z,51.63
2023-10-11T04:23:36.965Z,51.44
2023-10-11T04:26:10.593Z,51.73
2023-10-11T04:28:42.999Z,51.46
2023-10-11T04:31:29.789Z,51.63
2023-10-11T04:33:56.278Z,51.45
2023-10-11T04:36:23.202Z,51.36
2023-10-11T04:38:50.425Z,51.56
2023-10-11T04:41:21.291Z,51.55
2023-10-11T04:44:07.314Z,51.88
2023-10-11T04:46:33.917Z,51.98
2023-10-11T04:49:19.817Z,51.59
2023-10-11T04:51:47.958Z,51.65
2023-10-11T04:54:19.606Z,52.06
2023-10-11T04:56:46.450Z,51.88
2023-10-11T04:59:18.636Z,52.31
2023-10-11T05:01:48.490Z,52.18
2023-10-11T05:04:16.603Z,51.94
2023-10-11T05:06:43.906Z,52.22
2023-10-11T05:09:19.858Z,51.99
2023-10-11T05:11:54.942Z,52.04
2023-10-11T05:14:30.874Z,52.04
2023-10-11T05:17:00.742Z,52.08
2023-10-11T05:19:27.805Z,52.11
2023-10-11T05:22:04.155Z,52.15
2023-10-11T05:24:50.665Z,52.30
2023-10-11T05:27:35.449Z,52.36
2023-10-11T05:30:14.155Z,52.27
2023-10-11T05:33:09.213Z,52.24
2023-10-11T05:35:41.665Z,52.24
2023-10-11T05:38:27.123Z,52.27
2023-10-11T05:41:12.436Z,52.28
2023-10-11T05:43:57.846Z,52.26
2023-10-11T05:46:43.429Z,52.28
2023-10-11T05:49:32.057Z,52.37
2023-10-11T05:51:58.472Z,52.45
2023-10-11T05:54:35.190Z,52.22
2023-10-11T05:57:05.208Z,52.22
2023-10-11T05:59:33.185Z,52.06
2023-10-11T06:02:00.604Z,52.19
2023-10-11T06:04:27.122Z,52.89
2023-10-11T06:06:59.676Z,52.73
2023-10-11T06:09:31.674Z,52.95
2023-10-11T06:11:58.701Z,53.01
2023-10-11T06:14:25.236Z,52.78
2023-10-11T06:16:58.933Z,52.62
2023-10-11T06:19:29.055Z,52.40
2023-10-11T06:21:58.791Z,52.50
2023-10-11T06:24:25.366Z,52.28
2023-10-11T06:26:55.166Z,52.67
2023-10-11T06:29:25.662Z,52.56
2023-10-11T06:32:05.132Z,51.97
2023-10-11T06:34:35.903Z,52.50
2023-10-11T06:37:02.359Z,52.57
2023-10-11T06:39:35.472Z,53.08
2023-10-11T06:42:07.918Z,52.34
2023-10-11T06:44:35.332Z,51.24
2023-10-11T06:47:04.785Z,48.39
2023-10-11T06:49:41.282Z,48.09
2023-10-11T06:52:08.305Z,47.43
2023-10-11T06:54:34.640Z,45.39
2023-10-11T06:57:02.528Z,44.48
2023-10-11T06:59:29.520Z,43.16
2023-10-11T07:01:56.048Z,42.71
2023-10-11T07:04:22.627Z,39.74
2023-10-11T07:06:49.869Z,39.36
2023-10-11T07:09:22.862Z,38.13
2023-10-11T07:11:53.406Z,37.08
2023-10-11T07:14:20.058Z,36.01
2023-10-11T07:16:47.054Z,35.28
2023-10-11T07:19:16.893Z,35.13
2023-10-11T07:21:53.127Z,34.62
2023-10-11T07:24:31.681Z,34.26
2023-10-11T07:27:10.278Z,32.76
2023-10-11T07:29:38.117Z,32.37
2023-10-11T07:32:13.726Z,31.06
2023-10-11T07:38:15.890Z,29.96
2023-10-11T08:31:50.166Z,25.01
2023-10-11T08:34:16.736Z,25.58
2023-10-11T08:36:44.732Z,25.14
2023-10-11T08:39:18.996Z,26.36
2023-10-11T08:41:46.400Z,27.13
2023-10-11T08:44:21.950Z,28.18
2023-10-11T08:46:49.420Z,28.89
2023-10-11T08:49:16.205Z,29.08
2023-10-11T08:51:42.853Z,29.87
2023-10-11T08:54:26.717Z,31.15
2023-10-11T08:56:56.445Z,30.34
2023-10-11T08:59:26.524Z,30.91
2023-10-11T09:01:53.852Z,30.56
2023-10-11T09:04:20.431Z,29.60
2023-10-11T09:06:47.151Z,30.73
2023-10-11T09:09:34.190Z,30.56
2023-10-11T09:12:00.798Z,31.64
2023-10-11T09:14:30.707Z,32.31
2023-10-11T09:16:58.706Z,31.41
2023-10-11T09:19:25.240Z,31.47
2023-10-11T09:22:02.034Z,32.03
2023-10-11T09:24:44.683Z,32.85
2023-10-11T09:27:18.419Z,32.46
2023-10-11T09:29:47.803Z,32.21
2023-10-11T09:32:14.926Z,32.65
2023-10-11T09:34:44.674Z,32.24
2023-10-11T09:37:12.547Z,32.42
2023-10-11T09:39:39.298Z,32.50
2023-10-11T09:42:06.022Z,32.05
2023-10-11T09:44:38.387Z,31.96
2023-10-11T09:47:05.318Z,31.93
2023-10-11T09:49:34.458Z,33.78
2023-10-11T09:52:08.600Z,33.37
2023-10-11T09:54:38.696Z,34.07
2023-10-11T09:57:17.246Z,32.13
2023-10-11T10:00:00.498Z,32.30
2023-10-11T10:02:30.241Z,32.26
2023-10-11T10:04:56.770Z,32.58
2023-10-11T10:07:27.213Z,32.24
2023-10-11T10:09:57.325Z,32.63
2023-10-11T10:12:26.723Z,32.47
2023-10-11T10:15:03.515Z,33.16
2023-10-11T10:17:30.938Z,32.30
2023-10-11T10:20:01.428Z,31.14
2023-10-11T10:22:33.858Z,31.97
2023-10-11T10:25:21.781Z,31.90
2023-10-11T10:27:48.264Z,31.60
2023-10-11T10:30:22.836Z,31.51
2023-10-11T10:33:12.444Z,31.93
2023-10-11T10:35:39.979Z,31.36
2023-10-11T10:38:10.858Z,32.10
2023-10-11T10:40:38.601Z,33.11
2023-10-11T10:43:08.194Z,32.14
2023-10-11T10:45:37.702Z,32.08
2023-10-11T10:48:15.148Z,32.12
2023-10-11T10:50:52.535Z,31.76
2023-10-11T10:53:19.874Z,33.08
2023-10-11T10:55:46.471Z,31.54
2023-10-11T10:58:19.454Z,31.79
2023-10-11T11:00:48.338Z,31.33
2023-10-11T11:03:18.674Z,31.54
2023-10-11T11:05:57.679Z,31.81
2023-10-11T11:08:32.714Z,32.50
2023-10-11T11:11:01.996Z,32.24
2023-10-11T11:13:31.425Z,32.20
2023-10-11T11:15:57.813Z,30.80
2023-10-11T11:18:33.649Z,32.24
2023-10-11T11:21:19.086Z,30.77
2023-10-11T11:23:46.090Z,32.76
2023-10-11T11:26:31.124Z,32.70
2023-10-11T11:29:10.351Z,32.11
2023-10-11T11:32:00.376Z,32.91
2023-10-11T11:34:35.218Z,31.22
2023-10-11T11:39:41.005Z,32.81
2023-10-11T11:42:25.860Z,31.98
2023-10-11T11:44:52.379Z,31.53
2023-10-11T11:47:27.478Z,32.63
2023-10-11T11:49:55.404Z,32.76
2023-10-11T11:52:22.177Z,32.74
2023-10-11T11:54:48.615Z,33.59
2023-10-11T11:57:15.048Z,33.09
2023-10-11T11:59:46.936Z,33.61
2023-10-11T12:02:18.031Z,33.26
2023-10-11T12:04:49.469Z,33.46
2023-10-11T12:07:15.969Z,33.15
2023-10-11T12:09:52.252Z,32.88
2023-10-11T12:12:28.921Z,33.81
2023-10-11T12:14:55.395Z,33.93
2023-10-11T12:17:22.521Z,33.75
2023-10-11T12:19:54.775Z,34.33
2023-10-11T12:22:23.555Z,34.09
2023-10-11T12:24:50.229Z,34.08
2023-10-11T12:27:17.410Z,33.26
2023-10-11T12:29:56.564Z,34.14
2023-10-11T12:32:34.548Z,32.42
2023-10-11T12:35:05.958Z,32.57
2023-10-11T12:37:34.184Z,33.35
2023-10-11T12:40:00.749Z,33.56
2023-10-11T12:42:27.185Z,33.32
2023-10-11T12:44:54.232Z,32.87
2023-10-11T12:47:21.509Z,33.33
2023-10-11T12:49:47.872Z,33.61
2023-10-11T12:52:19.097Z,33.82
2023-10-11T12:54:45.503Z,33.01
2023-10-11T12:57:16.416Z,33.76
2023-10-11T12:59:43.067Z,32.93
2023-10-11T13:02:11.267Z,34.30
2023-10-11T13:04:42.516Z,33.89
2023-10-11T13:07:14.767Z,33.63
2023-10-11T13:09:41.601Z,33.02
2023-10-11T13:12:09.297Z,33.13
2023-10-11T13:14:36.836Z,33.01
2023-10-11T13:17:13.141Z,32.70
2023-10-11T13:19:45.327Z,33.14
2023-10-11T13:22:14.015Z,32.88
2023-10-11T13:24:40.660Z,32.41
2023-10-11T13:27:08.381Z,32.78
2023-10-11T13:29:34.821Z,32.97
2023-10-11T13:32:01.241Z,32.99
2023-10-11T13:34:31.011Z,33.43
2023-10-11T13:37:01.567Z,33.02
2023-10-11T13:39:28.326Z,32.80
2023-10-11T13:41:54.734Z,33.96
2023-10-11T13:44:22.832Z,33.57
2023-10-11T13:46:54.070Z,33.47
2023-10-11T13:49:26.656Z,33.68
2023-10-11T13:51:59.570Z,33.86
2023-10-11T13:54:51.687Z,34.38
2023-10-11T13:57:19.498Z,33.66
2023-10-11T13:59:49.041Z,33.15
2023-10-11T14:02:18.434Z,33.86
2023-10-11T14:04:49.684Z,34.25
2023-10-11T14:07:34.187Z,34.24
2023-10-11T14:10:01.198Z,33.62
2023-10-11T14:12:30.464Z,34.00
2023-10-11T14:14:57.284Z,34.63
2023-10-11T14:17:26.954Z,34.25
2023-10-11T14:19:53.887Z,34.13
2023-10-11T14:22:23.046Z,34.16
2023-10-11T14:24:49.866Z,34.64
2023-10-11T14:27:19.039Z,33.32
2023-10-11T14:29:48.519Z,33.98
2023-10-11T14:32:18.423Z,34.06
2023-10-11T14:34:46.789Z,33.43
2023-10-11T14:37:16.216Z,34.14
2023-10-11T14:39:48.697Z,33.86
2023-10-11T14:42:15.551Z,34.44
2023-10-11T14:44:42.470Z,34.34
2023-10-11T14:47:11.894Z,34.55
2023-10-11T14:49:38.520Z,34.42
2023-10-11T14:52:09.067Z,33.74
2023-10-11T14:54:36.074Z,33.99
2023-10-11T14:57:02.708Z,33.97
2023-10-11T14:59:29.654Z,33.95
2023-10-11T15:01:56.027Z,34.18
2023-10-11T15:04:22.798Z,34.71
2023-10-11T15:06:50.428Z,35.03
2023-10-11T15:09:18.007Z,35.37
2023-10-11T15:11:45.087Z,34.92
2023-10-11T15:14:11.449Z,35.21
2023-10-11T15:16:38.020Z,35.46
2023-10-11T15:19:04.819Z,36.08
2023-10-11T15:21:31.320Z,36.15
2023-10-11T15:23:57.869Z,33.79
2023-10-11T15:26:24.273Z,33.26
2023-10-11T15:28:52.957Z,33.30
2023-10-11T15:31:19.410Z,32.00
2023-10-11T15:33:46.641Z,33.58
2023-10-11T15:36:13.184Z,34.32
2023-10-11T15:38:39.709Z,34.46
2023-10-11T15:41:06.101Z,34.79
2023-10-11T15:43:35.707Z,33.78
2023-10-11T15:46:02.900Z,33.53
2023-10-11T15:48:30.098Z,34.29
2023-10-11T15:51:03.598Z,35.49
2023-10-11T15:53:29.953Z,38.31
2023-10-11T15:55:56.309Z,37.39
2023-10-11T15:58:22.719Z,36.98
2023-10-11T16:00:49.263Z,37.01
2023-10-11T16:03:16.278Z,37.88
2023-10-11T16:05:42.761Z,36.38
2023-10-11T16:08:09.155Z,37.55
2023-10-11T16:10:35.506Z,36.91
2023-10-11T16:13:02.686Z,37.52
2023-10-11T16:15:32.419Z,38.23
2023-10-11T16:17:58.942Z,38.24
2023-10-11T16:20:25.648Z,37.72
2023-10-11T16:22:52.109Z,38.10
2023-10-11T16:25:20.148Z,38.41
2023-10-11T16:27:46.988Z,38.53
2023-10-11T16:30:16.370Z,38.58
2023-10-11T16:32:43.057Z,38.79
2023-10-11T16:35:09.890Z,39.02
2023-10-11T16:37:37.456Z,39.24
2023-10-11T16:40:06.900Z,39.37
2023-10-11T16:42:36.453Z,39.58
2023-10-11T16:45:02.869Z,39.65
2023-10-11T16:47:31.819Z,39.97
2023-10-11T16:50:01.232Z,39.76
2023-10-11T16:52:27.845Z,39.88
2023-10-11T16:54:57.721Z,39.85
2023-10-11T16:57:24.464Z,40.36
2023-10-11T16:59:52.609Z,40.67
2023-10-11T17:02:19.077Z,40.55
2023-10-11T17:04:49.628Z,40.83
2023-10-11T17:07:16.917Z,41.00
2023-10-11T17:09:43.398Z,41.23
2023-10-11T17:12:11.352Z,41.41
2023-10-11T17:14:40.273Z,41.22
2023-10-11T17:17:06.896Z,41.84
2023-10-11T17:19:37.272Z,41.69
2023-10-11T17:22:05.730Z,41.32
2023-10-11T17:24:32.466Z,41.84
2023-10-11T17:26:59.003Z,42.03
2023-10-11T17:29:25.426Z,41.95
2023-10-11T17:31:52.151Z,41.89
2023-10-11T17:34:20.389Z,42.31
2023-10-11T17:36:47.904Z,42.11
2023-10-11T17:39:15.273Z,42.15
2023-10-11T17:41:42.980Z,42.43
2023-10-11T17:44:09.387Z,42.26
2023-10-11T17:46:35.806Z,42.03
2023-10-11T17:49:02.578Z,42.07
2023-10-11T17:51:29.297Z,42.24
2023-10-11T17:53:55.696Z,42.26
2023-10-11T17:56:23.284Z,42.29
2023-10-11T17:58:50.089Z,42.37
2023-10-11T18:01:20.007Z,42.36
2023-10-11T18:03:46.717Z,42.76
2023-10-11T18:06:13.310Z,42.53
2023-10-11T18:08:39.985Z,42.73
2023-10-11T18:11:07.307Z,42.80
2023-10-11T18:13:34.565Z,42.88
2023-10-11T18:16:01.166Z,42.97
2023-10-11T18:18:27.851Z,43.12
2023-10-11T18:20:54.497Z,43.39
2023-10-11T18:23:22.754Z,43.08
2023-10-11T18:25:49.585Z,43.54
2023-10-11T18:28:16.099Z,43.32
2023-10-11T18:30:42.624Z,43.55
2023-10-11T18:33:09.592Z,43.73
2023-10-11T18:35:46.378Z,43.44
2023-10-11T18:38:18.019Z,43.53
2023-10-11T18:40:46.976Z,43.50
2023-10-11T18:43:13.842Z,43.85
2023-10-11T18:45:40.498Z,43.85
2023-10-11T18:48:07.393Z,43.82
2023-10-11T18:50:34.027Z,44.02
2023-10-11T18:53:04.510Z,44.08
2023-10-11T18:55:30.987Z,43.86
2023-10-11T18:57:57.414Z,43.96
2023-10-11T19:00:24.832Z,44.08
2023-10-11T19:02:57.799Z,44.01
2023-10-11T19:05:24.313Z,44.03
2023-10-11T19:07:58.521Z,43.90
2023-10-11T19:10:29.977Z,44.12
2023-10-11T19:12:58.894Z,44.04
2023-10-11T19:15:25.781Z,43.88
2023-10-11T19:17:52.562Z,44.03
2023-10-11T19:20:19.529Z,44.00
2023-10-11T19:22:49.782Z,44.23
2023-10-11T19:25:17.741Z,44.02
2023-10-11T19:27:45.345Z,44.00
2023-10-11T19:30:18.354Z,44.16
2023-10-11T19:32:45.608Z,44.08
2023-10-11T19:35:23.529Z,43.97
2023-10-11T19:37:51.057Z,44.25
2023-10-11T19:40:20.917Z,44.51
2023-10-11T19:42:47.692Z,44.52
2023-10-11T19:45:17.660Z,44.59
2023-10-11T19:47:44.766Z,44.61
2023-10-11T19:50:14.996Z,44.61
2023-10-11T19:52:44.948Z,44.67
2023-10-11T19:58:01.396Z,45.03
2023-10-11T20:00:28.743Z,44.75
2023-10-11T20:02:57.632Z,45.06
2023-10-11T20:05:25.771Z,45.11
2023-10-11T20:07:53.657Z,44.91
2023-10-11T20:10:20.518Z,45.05
2023-10-11T20:12:47.701Z,45.07
2023-10-11T20:15:15.765Z,45.01
2023-10-11T20:17:56.863Z,45.16
2023-10-11T20:20:23.648Z,45.18
2023-10-11T20:22:50.900Z,45.09
2023-10-11T20:25:20.532Z,45.06
2023-10-11T20:27:49.188Z,45.08
2023-10-11T20:30:19.388Z,45.20
2023-10-11T20:32:46.320Z,45.41
2023-10-11T20:35:14.256Z,45.34
2023-10-11T20:37:41.638Z,45.26
2023-10-11T20:40:38.086Z,45.34
2023-10-11T20:43:04.509Z,45.40
2023-10-11T20:45:30.979Z,45.45
2023-10-11T20:47:57.666Z,45.78
2023-10-11T20:50:48.931Z,45.58
2023-10-11T20:53:15.436Z,45.43
2023-10-11T20:55:46.341Z,45.39
2023-10-11T20:58:14.706Z,45.16
2023-10-11T21:00:50.683Z,45.36
2023-10-11T21:05:58.809Z,45.61
2023-10-11T21:08:33.152Z,45.62
2023-10-11T21:10:59.647Z,45.48
2023-10-11T21:16:08.724Z,45.10
2023-10-11T21:18:45.581Z,44.81
2023-10-11T21:21:27.669Z,44.55
2023-10-11T21:23:55.217Z,44.61
2023-10-11T21:26:24.486Z,44.68
2023-10-11T21:28:55.201Z,45.59
2023-10-11T21:31:22.095Z,45.80
2023-10-11T21:33:48.619Z,45.77
2023-10-11T21:36:16.967Z,45.42
2023-10-11T21:38:45.831Z,45.34
2023-10-11T21:41:15.160Z,45.14
2023-10-11T21:43:41.598Z,45.11
2023-10-11T21:46:11.771Z,45.61
2023-10-11T21:48:39.667Z,45.66
2023-10-11T21:51:10.648Z,45.88
2023-10-11T21:53:36.992Z,45.38
2023-10-11T21:56:03.365Z,45.16
2023-10-11T21:58:31.287Z,45.37
2023-10-11T22:01:22.308Z,44.84
2023-10-11T22:03:49.718Z,45.09
2023-10-11T22:06:19.257Z,45.01
2023-10-11T22:08:49.461Z,45.70
2023-10-11T22:11:17.664Z,45.54
2023-10-11T22:13:45.475Z,45.20
2023-10-11T22:16:12.638Z,44.73
2023-10-11T22:18:41.515Z,44.80
2023-10-11T22:21:08.534Z,45.17
2023-10-11T22:23:34.925Z,45.02
2023-10-11T22:26:01.363Z,45.26
2023-10-11T22:28:27.750Z,45.58
2023-10-11T22:30:54.165Z,45.41
2023-10-11T22:33:23.257Z,45.45
2023-10-11T22:35:52.189Z,45.46
2023-10-11T22:38:20.688Z,45.34
2023-10-11T22:40:47.019Z,45.25
2023-10-11T22:43:27.728Z,45.42
2023-10-11T22:45:57.131Z,45.22
2023-10-11T22:48:24.109Z,45.07
2023-10-11T22:50:52.854Z,44.99
2023-10-11T22:53:19.330Z,44.97
2023-10-11T22:55:45.749Z,45.14
2023-10-11T22:58:17.245Z,44.74
2023-10-11T23:00:43.654Z,44.93
2023-10-11T23:03:13.444Z,45.08
2023-10-11T23:05:41.771Z,45.12
2023-10-11T23:08:08.211Z,44.23
2023-10-11T23:10:43.644Z,44.42
2023-10-11T23:13:10.049Z,44.79
2023-10-11T23:15:42.989Z,44.31
2023-10-11T23:18:15.796Z,44.52
2023-10-11T23:20:57.679Z,45.45
2023-10-11T23:23:30.532Z,45.46
2023-10-11T23:26:05.790Z,45.71
2023-10-11T23:28:36.269Z,45.66
2023-10-11T23:31:09.241Z,45.27
2023-10-11T23:33:49.273Z,45.49
2023-10-11T23:36:15.990Z,45.18
2023-10-11T23:38:51.347Z,44.80
2023-10-11T23:41:37.238Z,45.11
2023-10-11T23:44:23.210Z,44.71
2023-10-11T23:46:57.487Z,45.08
2023-10-11T23:52:06.644Z,44.87
2023-10-11T23:54:33.733Z,44.52
2023-10-11T23:57:00.167Z,44.44
2023-10-11T23:59:32.258Z,44.90
